sensor_id;sensor_type;location;lat;lon;timestamp;pressure;altitude;pressure_sealevel;temperature;humidity
73103;BME280;61294;65.988;29.172;2023-09-12T00:02:22;97785.13;;;14.42;100.00
73103;BME280;61294;65.988;29.172;2023-09-12T00:04:48;97786.91;;;14.41;100.00
73103;BME280;61294;65.988;29.172;2023-09-12T00:07:16;97780.78;;;14.39;100.00
73103;BME280;61294;65.988;29.172;2023-09-12T00:09:42;97781.63;;;14.41;100.00
73103;BME280;61294;65.988;29.172;2023-09-12T00:12:07;97760.72;;;14.32;100.00
73103;BME280;61294;65.988;29.172;2023-09-12T00:14:33;97759.69;;;14.36;100.00
73103;BME280;61294;65.988;29.172;2023-09-12T00:16:59;97778.06;;;14.41;100.00
73103;BME280;61294;65.988;29.172;2023-09-12T00:19:25;97727.78;;;14.14;100.00
73103;BME280;61294;65.988;29.172;2023-09-12T00:21:50;97745.66;;;14.34;100.00
73103;BME280;61294;65.988;29.172;2023-09-12T00:24:18;97757.81;;;14.40;100.00
73103;BME280;61294;65.988;29.172;2023-09-12T00:26:43;97704.06;;;14.11;100.00
73103;BME280;61294;65.988;29.172;2023-09-12T00:29:09;97750.72;;;14.40;100.00
73103;BME280;61294;65.988;29.172;2023-09-12T00:31:34;97746.28;;;14.41;100.00
73103;BME280;61294;65.988;29.172;2023-09-12T00:34:00;97754.22;;;14.41;100.00
73103;BME280;61294;65.988;29.172;2023-09-12T00:36:26;97746.34;;;14.39;100.00
73103;BME280;61294;65.988;29.172;2023-09-12T00:38:51;97739.63;;;14.29;100.00
73103;BME280;61294;65.988;29.172;2023-09-12T00:41:17;97732.47;;;14.32;100.00
73103;BME280;61294;65.988;29.172;2023-09-12T00:43:43;97735.06;;;14.34;100.00
73103;BME280;61294;65.988;29.172;2023-09-12T00:46:08;97745.50;;;14.39;100.00
73103;BME280;61294;65.988;29.172;2023-09-12T00:48:35;97733.09;;;14.39;100.00
73103;BME280;61294;65.988;29.172;2023-09-12T00:51:03;97730.59;;;14.35;100.00
73103;BME280;61294;65.988;29.172;2023-09-12T00:53:30;97741.94;;;14.40;100.00
73103;BME280;61294;65.988;29.172;2023-09-12T00:55:57;97740.13;;;14.40;100.00
73103;BME280;61294;65.988;29.172;2023-09-12T00:58:25;97725.31;;;14.35;100.00
73103;BME280;61294;65.988;29.172;2023-09-12T01:00:51;97721.75;;;14.36;100.00
73103;BME280;61294;65.988;29.172;2023-09-12T01:03:17;97730.59;;;14.35;100.00
73103;BME280;61294;65.988;29.172;2023-09-12T01:05:43;97741.03;;;14.39;100.00
73103;BME280;61294;65.988;29.172;2023-09-12T01:08:09;97737.47;;;14.40;100.00
73103;BME280;61294;65.988;29.172;2023-09-12T01:10:35;97716.00;;;14.23;100.00
73103;BME280;61294;65.988;29.172;2023-09-12T01:13:01;97708.69;;;14.31;100.00
73103;BME280;61294;65.988;29.172;2023-09-12T01:15:27;97737.66;;;14.36;100.00
73103;BME280;61294;65.988;29.172;2023-09-12T01:17:53;97746.25;;;14.42;100.00
73103;BME280;61294;65.988;29.172;2023-09-12T01:20:31;97733.91;;;14.41;100.00
73103;BME280;61294;65.988;29.172;2023-09-12T01:26:04;97726.81;;;14.42;100.00
73103;BME280;61294;65.988;29.172;2023-09-12T01:28:38;97735.78;;;14.38;100.00
73103;BME280;61294;65.988;29.172;2023-09-12T01:31:08;97723.31;;;14.41;100.00
73103;BME280;61294;65.988;29.172;2023-09-12T01:33:35;97703.50;;;14.26;100.00
73103;BME280;61294;65.988;29.172;2023-09-12T01:36:01;97715.00;;;14.27;100.00
73103;BME280;61294;65.988;29.172;2023-09-12T01:38:29;97722.56;;;14.38;100.00
73103;BME280;61294;65.988;29.172;2023-09-12T01:40:56;97723.56;;;14.35;100.00
73103;BME280;61294;65.988;29.172;2023-09-12T01:43:23;97710.38;;;14.32;100.00
73103;BME280;61294;65.988;29.172;2023-09-12T01:45:53;97716.56;;;14.32;100.00
73103;BME280;61294;65.988;29.172;2023-09-12T01:48:21;97715.50;;;14.38;100.00
73103;BME280;61294;65.988;29.172;2023-09-12T01:50:48;97702.25;;;14.38;100.00
73103;BME280;61294;65.988;29.172;2023-09-12T01:53:15;97703.03;;;14.40;100.00
73103;BME280;61294;65.988;29.172;2023-09-12T01:55:43;97683.81;;;14.35;100.00
73103;BME280;61294;65.988;29.172;2023-09-12T01:58:11;97689.84;;;14.39;100.00
73103;BME280;61294;65.988;29.172;2023-09-12T02:00:37;97646.56;;;14.14;100.00
73103;BME280;61294;65.988;29.172;2023-09-12T02:03:04;97683.69;;;14.38;100.00
73103;BME280;61294;65.988;29.172;2023-09-12T02:05:29;97682.81;;;14.38;100.00
73103;BME280;61294;65.988;29.172;2023-09-12T02:07:55;97682.97;;;14.33;100.00
73103;BME280;61294;65.988;29.172;2023-09-12T02:10:21;97689.06;;;14.37;100.00
73103;BME280;61294;65.988;29.172;2023-09-12T02:12:47;97689.91;;;14.37;100.00
73103;BME280;61294;65.988;29.172;2023-09-12T02:15:13;97688.22;;;14.35;100.00
73103;BME280;61294;65.988;29.172;2023-09-12T02:17:39;97682.13;;;14.32;100.00
73103;BME280;61294;65.988;29.172;2023-09-12T02:20:07;97680.34;;;14.33;100.00
73103;BME280;61294;65.988;29.172;2023-09-12T02:22:33;97669.91;;;14.28;100.00
73103;BME280;61294;65.988;29.172;2023-09-12T02:24:59;97669.97;;;14.27;100.00
73103;BME280;61294;65.988;29.172;2023-09-12T02:27:25;97626.66;;;14.03;100.00
73103;BME280;61294;65.988;29.172;2023-09-12T02:29:50;97682.06;;;14.34;100.00
73103;BME280;61294;65.988;29.172;2023-09-12T02:32:16;97663.84;;;14.25;100.00
73103;BME280;61294;65.988;29.172;2023-09-12T02:34:42;97669.03;;;14.28;100.00
73103;BME280;61294;65.988;29.172;2023-09-12T02:37:07;97674.13;;;14.34;100.00
73103;BME280;61294;65.988;29.172;2023-09-12T02:39:33;97676.78;;;14.34;100.00
73103;BME280;61294;65.988;29.172;2023-09-12T02:41:59;97667.16;;;14.31;100.00
73103;BME280;61294;65.988;29.172;2023-09-12T02:44:24;97662.22;;;14.21;100.00
73103;BME280;61294;65.988;29.172;2023-09-12T02:46:50;97656.28;;;14.14;100.00
73103;BME280;61294;65.988;29.172;2023-09-12T02:49:16;97657.13;;;14.14;100.00
73103;BME280;61294;65.988;29.172;2023-09-12T02:51:42;97664.88;;;14.21;100.00
73103;BME280;61294;65.988;29.172;2023-09-12T02:54:07;97648.34;;;14.14;100.00
73103;BME280;61294;65.988;29.172;2023-09-12T02:56:33;97645.88;;;14.08;100.00
73103;BME280;61294;65.988;29.172;2023-09-12T02:58:59;97662.50;;;14.13;100.00
73103;BME280;61294;65.988;29.172;2023-09-12T03:01:25;97651.84;;;14.14;100.00
73103;BME280;61294;65.988;29.172;2023-09-12T03:03:53;97632.03;;;14.01;100.00
73103;BME280;61294;65.988;29.172;2023-09-12T03:06:20;97643.16;;;14.11;100.00
73103;BME280;61294;65.988;29.172;2023-09-12T03:08:46;97657.91;;;14.18;100.00
73103;BME280;61294;65.988;29.172;2023-09-12T03:11:12;97658.78;;;14.19;100.00
73103;BME280;61294;65.988;29.172;2023-09-12T03:13:41;97629.25;;;14.04;100.00
73103;BME280;61294;65.988;29.172;2023-09-12T03:16:14;97658.72;;;14.20;100.00
73103;BME280;61294;65.988;29.172;2023-09-12T03:18:40;97654.38;;;14.18;100.00
73103;BME280;61294;65.988;29.172;2023-09-12T03:21:06;97652.44;;;14.23;100.00
73103;BME280;61294;65.988;29.172;2023-09-12T03:23:32;97662.06;;;14.25;100.00
73103;BME280;61294;65.988;29.172;2023-09-12T03:26:05;97647.03;;;14.26;100.00
73103;BME280;61294;65.988;29.172;2023-09-12T03:28:32;97639.09;;;14.26;100.00
73103;BME280;61294;65.988;29.172;2023-09-12T03:31:07;97626.19;;;14.17;100.00
73103;BME280;61294;65.988;29.172;2023-09-12T03:33:33;97626.28;;;14.13;100.00
73103;BME280;61294;65.988;29.172;2023-09-12T03:35:59;97629.81;;;14.14;100.00
73103;BME280;61294;65.988;29.172;2023-09-12T03:38:25;97629.88;;;14.12;100.00
73103;BME280;61294;65.988;29.172;2023-09-12T03:40:54;97629.75;;;14.15;100.00
73103;BME280;61294;65.988;29.172;2023-09-12T03:43:19;97610.56;;;14.09;100.00
73103;BME280;61294;65.988;29.172;2023-09-12T03:45:45;97618.28;;;14.15;100.00
73103;BME280;61294;65.988;29.172;2023-09-12T03:48:11;97640.78;;;14.28;100.00
73103;BME280;61294;65.988;29.172;2023-09-12T03:50:36;97638.91;;;14.30;100.00
73103;BME280;61294;65.988;29.172;2023-09-12T03:53:02;97636.22;;;14.32;100.00
73103;BME280;61294;65.988;29.172;2023-09-12T03:55:28;97644.16;;;14.32;100.00
73103;BME280;61294;65.988;29.172;2023-09-12T03:57:54;97609.34;;;14.18;100.00
73103;BME280;61294;65.988;29.172;2023-09-12T04:00:19;97642.28;;;14.36;100.00
73103;BME280;61294;65.988;29.172;2023-09-12T04:02:45;97636.00;;;14.38;100.00
73103;BME280;61294;65.988;29.172;2023-09-12T04:05:11;97637.78;;;14.38;100.00
73103;BME280;61294;65.988;29.172;2023-09-12T04:07:36;97636.81;;;14.40;100.00
73103;BME280;61294;65.988;29.172;2023-09-12T04:10:02;97631.44;;;14.42;100.00
73103;BME280;61294;65.988;29.172;2023-09-12T04:12:28;97600.16;;;14.28;100.00
73103;BME280;61294;65.988;29.172;2023-09-12T04:14:53;97624.53;;;14.38;100.00
73103;BME280;61294;65.988;29.172;2023-09-12T04:17:20;97634.88;;;14.45;100.00
73103;BME280;61294;65.988;29.172;2023-09-12T04:19:46;97630.34;;;14.47;100.00
73103;BME280;61294;65.988;29.172;2023-09-12T04:22:11;97620.66;;;14.48;100.00
73103;BME280;61294;65.988;29.172;2023-09-12T04:24:37;97628.53;;;14.49;100.00
73103;BME280;61294;65.988;29.172;2023-09-12T04:27:03;97603.34;;;14.38;100.00
73103;BME280;61294;65.988;29.172;2023-09-12T04:29:29;97626.63;;;14.53;100.00
73103;BME280;61294;65.988;29.172;2023-09-12T04:31:54;97590.38;;;14.30;100.00
73103;BME280;61294;65.988;29.172;2023-09-12T04:34:25;97615.16;;;14.53;100.00
73103;BME280;61294;65.988;29.172;2023-09-12T04:36:52;97616.91;;;14.54;100.00
73103;BME280;61294;65.988;29.172;2023-09-12T04:39:18;97615.34;;;14.48;100.00
73103;BME280;61294;65.988;29.172;2023-09-12T04:41:44;97612.50;;;14.53;100.00
73103;BME280;61294;65.988;29.172;2023-09-12T04:44:10;97604.78;;;14.46;100.00
73103;BME280;61294;65.988;29.172;2023-09-12T04:46:36;97613.25;;;14.56;100.00
73103;BME280;61294;65.988;29.172;2023-09-12T04:49:03;97601.72;;;14.57;100.00
73103;BME280;61294;65.988;29.172;2023-09-12T04:51:28;97610.59;;;14.56;100.00
73103;BME280;61294;65.988;29.172;2023-09-12T04:53:54;97611.53;;;14.55;100.00
73103;BME280;61294;65.988;29.172;2023-09-12T04:56:20;97601.78;;;14.56;100.00
73103;BME280;61294;65.988;29.172;2023-09-12T04:58:46;97601.38;;;14.68;100.00
73103;BME280;61294;65.988;29.172;2023-09-12T05:01:12;97575.34;;;14.54;100.00
73103;BME280;61294;65.988;29.172;2023-09-12T05:03:37;97596.22;;;14.63;100.00
73103;BME280;61294;65.988;29.172;2023-09-12T05:06:03;97582.13;;;14.63;100.00
73103;BME280;61294;65.988;29.172;2023-09-12T05:08:29;97591.50;;;14.72;100.00
73103;BME280;61294;65.988;29.172;2023-09-12T05:10:55;97589.69;;;14.74;100.00
73103;BME280;61294;65.988;29.172;2023-09-12T05:13:20;97598.47;;;14.74;100.00
73103;BME280;61294;65.988;29.172;2023-09-12T05:15:46;97599.56;;;14.69;100.00
73103;BME280;61294;65.988;29.172;2023-09-12T05:18:12;97596.75;;;14.73;100.00
73103;BME280;61294;65.988;29.172;2023-09-12T05:20:38;97594.97;;;14.74;100.00
73103;BME280;61294;65.988;29.172;2023-09-12T05:23:04;97587.38;;;14.64;100.00
73103;BME280;61294;65.988;29.172;2023-09-12T05:25:30;97578.19;;;14.73;100.00
73103;BME280;61294;65.988;29.172;2023-09-12T05:27:56;97596.34;;;14.84;100.00
73103;BME280;61294;65.988;29.172;2023-09-12T05:30:22;97585.50;;;14.90;100.00
73103;BME280;61294;65.988;29.172;2023-09-12T05:32:52;97599.78;;;14.86;100.00
73103;BME280;61294;65.988;29.172;2023-09-12T05:35:18;97601.47;;;14.89;100.00
73103;BME280;61294;65.988;29.172;2023-09-12T05:37:43;97599.97;;;14.81;100.00
73103;BME280;61294;65.988;29.172;2023-09-12T05:40:12;97598.09;;;14.83;100.00
73103;BME280;61294;65.988;29.172;2023-09-12T05:42:38;97600.09;;;14.78;100.00
73103;BME280;61294;65.988;29.172;2023-09-12T05:45:04;97599.28;;;14.76;100.00
73103;BME280;61294;65.988;29.172;2023-09-12T05:47:29;97591.56;;;14.70;100.00
73103;BME280;61294;65.988;29.172;2023-09-12T05:49:55;97599.41;;;14.73;100.00
73103;BME280;61294;65.988;29.172;2023-09-12T05:52:21;97570.75;;;14.59;100.00
73103;BME280;61294;65.988;29.172;2023-09-12T05:54:46;97582.00;;;14.66;100.00
73103;BME280;61294;65.988;29.172;2023-09-12T05:57:12;97594.78;;;14.78;100.00
73103;BME280;61294;65.988;29.172;2023-09-12T05:59:38;97569.44;;;14.71;100.00
73103;BME280;61294;65.988;29.172;2023-09-12T06:02:05;97552.16;;;14.61;100.00
73103;BME280;61294;65.988;29.172;2023-09-12T06:04:34;97592.03;;;14.81;100.00
73103;BME280;61294;65.988;29.172;2023-09-12T06:07:01;97577.16;;;14.77;100.00
73103;BME280;61294;65.988;29.172;2023-09-12T06:09:27;97591.09;;;14.82;100.00
73103;BME280;61294;65.988;29.172;2023-09-12T06:11:53;97605.28;;;14.81;100.00
73103;BME280;61294;65.988;29.172;2023-09-12T06:14:19;97564.34;;;14.66;100.00
73103;BME280;61294;65.988;29.172;2023-09-12T06:16:44;97608.84;;;14.80;100.00
73103;BME280;61294;65.988;29.172;2023-09-12T06:19:10;97598.22;;;14.80;100.00
73103;BME280;61294;65.988;29.172;2023-09-12T06:21:36;97592.94;;;14.80;100.00
73103;BME280;61294;65.988;29.172;2023-09-12T06:24:20;97594.66;;;14.81;100.00
73103;BME280;61294;65.988;29.172;2023-09-12T06:26:49;97597.84;;;14.91;100.00
73103;BME280;61294;65.988;29.172;2023-09-12T06:29:15;97585.56;;;14.89;100.00
73103;BME280;61294;65.988;29.172;2023-09-12T06:31:41;97559.63;;;14.73;100.00
73103;BME280;61294;65.988;29.172;2023-09-12T06:34:07;97573.47;;;14.81;100.00
73103;BME280;61294;65.988;29.172;2023-09-12T06:36:33;97589.03;;;14.91;100.00
73103;BME280;61294;65.988;29.172;2023-09-12T06:38:59;97568.03;;;14.84;100.00
73103;BME280;61294;65.988;29.172;2023-09-12T06:41:26;97554.41;;;14.72;100.00
73103;BME280;61294;65.988;29.172;2023-09-12T06:43:52;97559.34;;;14.81;100.00
73103;BME280;61294;65.988;29.172;2023-09-12T06:46:18;97580.63;;;14.79;100.00
73103;BME280;61294;65.988;29.172;2023-09-12T06:48:44;97575.19;;;14.82;100.00
73103;BME280;61294;65.988;29.172;2023-09-12T06:51:10;97569.84;;;14.84;100.00
73103;BME280;61294;65.988;29.172;2023-09-12T06:53:36;97589.81;;;14.93;100.00
73103;BME280;61294;65.988;29.172;2023-09-12T06:56:06;97598.75;;;14.90;100.00
73103;BME280;61294;65.988;29.172;2023-09-12T06:58:32;97596.16;;;14.89;100.00
73103;BME280;61294;65.988;29.172;2023-09-12T07:01:07;97617.88;;;14.98;100.00
73103;BME280;61294;65.988;29.172;2023-09-12T07:03:34;97615.28;;;14.97;100.00
73103;BME280;61294;65.988;29.172;2023-09-12T07:06:00;97606.41;;;14.98;100.00
73103;BME280;61294;65.988;29.172;2023-09-12T07:08:26;97602.53;;;15.07;100.00
73103;BME280;61294;65.988;29.172;2023-09-12T07:10:52;97596.25;;;15.09;100.00
73103;BME280;61294;65.988;29.172;2023-09-12T07:13:23;97588.31;;;15.08;100.00
73103;BME280;61294;65.988;29.172;2023-09-12T07:15:50;97596.53;;;15.01;100.00
73103;BME280;61294;65.988;29.172;2023-09-12T07:18:16;97597.28;;;15.05;100.00
73103;BME280;61294;65.988;29.172;2023-09-12T07:20:42;97606.63;;;14.92;100.00
73103;BME280;61294;65.988;29.172;2023-09-12T07:23:08;97616.13;;;14.97;100.00
73103;BME280;61294;65.988;29.172;2023-09-12T07:25:41;97614.53;;;14.93;100.00
73103;BME280;61294;65.988;29.172;2023-09-12T07:28:09;97612.06;;;14.89;100.00
73103;BME280;61294;65.988;29.172;2023-09-12T07:30:35;97628.94;;;14.86;100.00
73103;BME280;61294;65.988;29.172;2023-09-12T07:33:03;97621.75;;;14.90;100.00
73103;BME280;61294;65.988;29.172;2023-09-12T07:35:32;97619.03;;;14.91;100.00
73103;BME280;61294;65.988;29.172;2023-09-12T07:37:59;97624.34;;;14.91;100.00
73103;BME280;61294;65.988;29.172;2023-09-12T07:40:24;97611.09;;;14.91;100.00
73103;BME280;61294;65.988;29.172;2023-09-12T07:42:50;97597.25;;;14.83;100.00
73103;BME280;61294;65.988;29.172;2023-09-12T07:45:16;97611.88;;;14.93;100.00
73103;BME280;61294;65.988;29.172;2023-09-12T07:47:42;97604.19;;;14.87;100.00
73103;BME280;61294;65.988;29.172;2023-09-12T07:50:07;97604.63;;;14.98;100.00
73103;BME280;61294;65.988;29.172;2023-09-12T07:52:33;97601.00;;;15.01;100.00
73103;BME280;61294;65.988;29.172;2023-09-12T07:55:00;97615.91;;;15.04;100.00
73103;BME280;61294;65.988;29.172;2023-09-12T07:57:26;97603.94;;;14.93;100.00
73103;BME280;61294;65.988;29.172;2023-09-12T07:59:53;97609.38;;;15.12;100.00
73103;BME280;61294;65.988;29.172;2023-09-12T08:02:18;97608.94;;;15.23;100.00
73103;BME280;61294;65.988;29.172;2023-09-12T08:04:44;97608.44;;;15.13;100.00
73103;BME280;61294;65.988;29.172;2023-09-12T08:07:10;97608.69;;;15.07;100.00
73103;BME280;61294;65.988;29.172;2023-09-12T08:10:08;97575.50;;;14.97;100.00
73103;BME280;61294;65.988;29.172;2023-09-12T08:12:34;97607.53;;;15.14;100.00
73103;BME280;61294;65.988;29.172;2023-09-12T08:15:04;97611.34;;;15.07;100.00
73103;BME280;61294;65.988;29.172;2023-09-12T08:17:31;97607.53;;;15.14;100.00
73103;BME280;61294;65.988;29.172;2023-09-12T08:19:57;97583.22;;;15.03;100.00
73103;BME280;61294;65.988;29.172;2023-09-12T08:22:23;97585.06;;;15.01;100.00
73103;BME280;61294;65.988;29.172;2023-09-12T08:24:51;97623.56;;;15.11;100.00
73103;BME280;61294;65.988;29.172;2023-09-12T08:27:17;97599.81;;;15.08;100.00
73103;BME280;61294;65.988;29.172;2023-09-12T08:29:43;97569.03;;;15.04;100.00
73103;BME280;61294;65.988;29.172;2023-09-12T08:32:10;97608.16;;;15.21;100.00
73103;BME280;61294;65.988;29.172;2023-09-12T08:34:35;97598.41;;;15.22;100.00
73103;BME280;61294;65.988;29.172;2023-09-12T08:37:01;97562.31;;;14.95;100.00
73103;BME280;61294;65.988;29.172;2023-09-12T08:39:27;97617.66;;;15.27;100.00
73103;BME280;61294;65.988;29.172;2023-09-12T08:41:54;97610.63;;;15.26;100.00
73103;BME280;61294;65.988;29.172;2023-09-12T08:44:23;97600.06;;;15.24;100.00
73103;BME280;61294;65.988;29.172;2023-09-12T08:46:49;97607.75;;;15.30;100.00
73103;BME280;61294;65.988;29.172;2023-09-12T08:49:15;97598.09;;;15.29;100.00
73103;BME280;61294;65.988;29.172;2023-09-12T08:51:41;97613.19;;;15.27;100.00
73103;BME280;61294;65.988;29.172;2023-09-12T08:54:07;97608.47;;;15.35;100.00
73103;BME280;61294;65.988;29.172;2023-09-12T08:56:36;97612.72;;;15.40;100.00
73103;BME280;61294;65.988;29.172;2023-09-12T08:59:05;97601.78;;;15.47;100.00
73103;BME280;61294;65.988;29.172;2023-09-12T09:01:32;97592.31;;;15.62;100.00
73103;BME280;61294;65.988;29.172;2023-09-12T09:04:02;97593.66;;;15.73;100.00
73103;BME280;61294;65.988;29.172;2023-09-12T09:06:30;97597.97;;;15.75;100.00
73103;BME280;61294;65.988;29.172;2023-09-12T09:08:58;97602.59;;;15.92;100.00
73103;BME280;61294;65.988;29.172;2023-09-12T09:11:25;97542.53;;;15.67;100.00
73103;BME280;61294;65.988;29.172;2023-09-12T09:13:54;97605.91;;;15.97;100.00
73103;BME280;61294;65.988;29.172;2023-09-12T09:16:20;97612.81;;;16.01;100.00
73103;BME280;61294;65.988;29.172;2023-09-12T09:19:01;97607.19;;;16.09;100.00
73103;BME280;61294;65.988;29.172;2023-09-12T09:21:29;97603.19;;;16.19;100.00
73103;BME280;61294;65.988;29.172;2023-09-12T09:24:02;97614.94;;;16.14;100.00
73103;BME280;61294;65.988;29.172;2023-09-12T09:26:48;97600.59;;;15.97;100.00
73103;BME280;61294;65.988;29.172;2023-09-12T09:29:20;97594.50;;;15.73;100.00
73103;BME280;61294;65.988;29.172;2023-09-12T09:31:48;97596.88;;;15.81;100.00
73103;BME280;61294;65.988;29.172;2023-09-12T09:34:21;97610.34;;;15.76;100.00
73103;BME280;61294;65.988;29.172;2023-09-12T09:36:51;97612.03;;;15.77;100.00
73103;BME280;61294;65.988;29.172;2023-09-12T09:39:19;97596.16;;;15.98;100.00
73103;BME280;61294;65.988;29.172;2023-09-12T09:41:52;97599.81;;;15.95;100.00
73103;BME280;61294;65.988;29.172;2023-09-12T09:44:19;97607.63;;;15.98;100.00
73103;BME280;61294;65.988;29.172;2023-09-12T09:46:46;97604.44;;;15.90;100.00
73103;BME280;61294;65.988;29.172;2023-09-12T09:49:19;97591.13;;;15.69;100.00
73103;BME280;61294;65.988;29.172;2023-09-12T09:51:45;97607.72;;;15.75;100.00
73103;BME280;61294;65.988;29.172;2023-09-12T09:54:12;97580.81;;;15.62;100.00
73103;BME280;61294;65.988;29.172;2023-09-12T09:56:53;97605.81;;;15.78;100.00
73103;BME280;61294;65.988;29.172;2023-09-12T09:59:21;97580.66;;;15.66;100.00
73103;BME280;61294;65.988;29.172;2023-09-12T10:01:49;97575.13;;;15.71;100.00
73103;BME280;61294;65.988;29.172;2023-09-12T10:04:16;97595.00;;;15.83;100.00
73103;BME280;61294;65.988;29.172;2023-09-12T10:06:44;97585.63;;;15.74;100.00
73103;BME280;61294;65.988;29.172;2023-09-12T10:09:14;97579.09;;;15.83;100.00
73103;BME280;61294;65.988;29.172;2023-09-12T10:11:42;97585.84;;;15.90;100.00
73103;BME280;61294;65.988;29.172;2023-09-12T10:14:09;97578.56;;;15.95;100.00
73103;BME280;61294;65.988;29.172;2023-09-12T10:16:45;97576.22;;;16.08;100.00
73103;BME280;61294;65.988;29.172;2023-09-12T10:19:17;97577.69;;;16.15;100.00
73103;BME280;61294;65.988;29.172;2023-09-12T10:24:35;97552.72;;;16.38;100.00
73103;BME280;61294;65.988;29.172;2023-09-12T10:27:03;97568.81;;;16.54;100.00
73103;BME280;61294;65.988;29.172;2023-09-12T10:29:31;97568.69;;;16.77;100.00
73103;BME280;61294;65.988;29.172;2023-09-12T10:31:57;97581.50;;;17.06;100.00
73103;BME280;61294;65.988;29.172;2023-09-12T10:34:25;97580.59;;;17.07;100.00
73103;BME280;61294;65.988;29.172;2023-09-12T10:36:52;97552.66;;;16.78;100.00
73103;BME280;61294;65.988;29.172;2023-09-12T10:39:20;97570.66;;;16.92;100.00
73103;BME280;61294;65.988;29.172;2023-09-12T10:41:49;97598.25;;;17.08;100.00
73103;BME280;61294;65.988;29.172;2023-09-12T10:44:17;97583.88;;;17.13;100.00
73103;BME280;61294;65.988;29.172;2023-09-12T10:46:44;97575.53;;;17.01;100.00
73103;BME280;61294;65.988;29.172;2023-09-12T10:49:12;97578.19;;;17.01;100.00
73103;BME280;61294;65.988;29.172;2023-09-12T10:51:40;97587.94;;;17.39;100.00
73103;BME280;61294;65.988;29.172;2023-09-12T10:54:06;97585.81;;;17.46;100.00
73103;BME280;61294;65.988;29.172;2023-09-12T10:56:34;97573.84;;;17.00;100.00
73103;BME280;61294;65.988;29.172;2023-09-12T11:01:44;97594.91;;;16.84;100.00
73103;BME280;61294;65.988;29.172;2023-09-12T11:06:44;97579.91;;;16.83;100.00
73103;BME280;61294;65.988;29.172;2023-09-12T11:09:26;97573.03;;;16.98;100.00
73103;BME280;61294;65.988;29.172;2023-09-12T11:11:58;97570.53;;;16.95;100.00
73103;BME280;61294;65.988;29.172;2023-09-12T11:14:24;97580.63;;;16.68;100.00
73103;BME280;61294;65.988;29.172;2023-09-12T11:19:46;97567.69;;;16.79;100.00
73103;BME280;61294;65.988;29.172;2023-09-12T11:22:23;97560.66;;;16.78;100.00
73103;BME280;61294;65.988;29.172;2023-09-12T11:24:52;97558.63;;;16.64;100.00
73103;BME280;61294;65.988;29.172;2023-09-12T11:27:19;97566.75;;;16.61;100.00
73103;BME280;61294;65.988;29.172;2023-09-12T11:29:45;97576.88;;;16.53;100.00
73103;BME280;61294;65.988;29.172;2023-09-12T11:32:30;97572.91;;;16.43;100.00
73103;BME280;61294;65.988;29.172;2023-09-12T11:35:05;97547.94;;;16.07;100.00
73103;BME280;61294;65.988;29.172;2023-09-12T11:37:31;97581.69;;;16.05;100.00
73103;BME280;61294;65.988;29.172;2023-09-12T11:39:58;97595.19;;;15.78;100.00
73103;BME280;61294;65.988;29.172;2023-09-12T11:42:24;97620.56;;;15.85;100.00
73103;BME280;61294;65.988;29.172;2023-09-12T11:44:54;97608.47;;;15.78;100.00
73103;BME280;61294;65.988;29.172;2023-09-12T11:47:20;97580.81;;;15.62;100.00
73103;BME280;61294;65.988;29.172;2023-09-12T11:49:46;97571.06;;;15.19;100.00
73103;BME280;61294;65.988;29.172;2023-09-12T11:52:13;97567.50;;;15.21;100.00
73103;BME280;61294;65.988;29.172;2023-09-12T11:54:43;97562.63;;;15.10;100.00
73103;BME280;61294;65.988;29.172;2023-09-12T11:57:12;97576.38;;;15.19;100.00
73103;BME280;61294;65.988;29.172;2023-09-12T11:59:40;97552.59;;;15.39;100.00
73103;BME280;61294;65.988;29.172;2023-09-12T12:02:07;97585.91;;;15.68;100.00
73103;BME280;61294;65.988;29.172;2023-09-12T12:04:34;97576.19;;;15.46;100.00
73103;BME280;61294;65.988;29.172;2023-09-12T12:07:00;97562.59;;;15.32;100.00
73103;BME280;61294;65.988;29.172;2023-09-12T12:09:35;97568.16;;;15.48;100.00
73103;BME280;61294;65.988;29.172;2023-09-12T12:12:19;97567.41;;;15.44;100.00
73103;BME280;61294;65.988;29.172;2023-09-12T12:14:46;97575.63;;;15.38;100.00
73103;BME280;61294;65.988;29.172;2023-09-12T12:17:12;97580.13;;;15.36;100.00
73103;BME280;61294;65.988;29.172;2023-09-12T12:19:38;97569.13;;;15.45;100.00
73103;BME280;61294;65.988;29.172;2023-09-12T12:22:05;97573.13;;;15.56;100.00
73103;BME280;61294;65.988;29.172;2023-09-12T12:24:45;97571.84;;;15.44;100.00
73103;BME280;61294;65.988;29.172;2023-09-12T12:27:11;97568.25;;;15.45;100.00
73103;BME280;61294;65.988;29.172;2023-09-12T12:29:37;97570.34;;;15.59;100.00
73103;BME280;61294;65.988;29.172;2023-09-12T12:32:05;97564.25;;;15.57;100.00
73103;BME280;61294;65.988;29.172;2023-09-12T12:34:31;97567.19;;;15.49;100.00
73103;BME280;61294;65.988;29.172;2023-09-12T12:36:57;97547.09;;;15.43;100.00
73103;BME280;61294;65.988;29.172;2023-09-12T12:39:23;97571.53;;;15.51;100.00
73103;BME280;61294;65.988;29.172;2023-09-12T12:41:52;97567.28;;;15.47;100.00
73103;BME280;61294;65.988;29.172;2023-09-12T12:44:19;97527.66;;;15.22;100.00
73103;BME280;61294;65.988;29.172;2023-09-12T12:46:54;97575.00;;;15.31;100.00
73103;BME280;61294;65.988;29.172;2023-09-12T12:49:20;97573.09;;;15.35;100.00
73103;BME280;61294;65.988;29.172;2023-09-12T12:51:47;97565.38;;;15.29;100.00
73103;BME280;61294;65.988;29.172;2023-09-12T12:54:17;97587.78;;;15.44;100.00
73103;BME280;61294;65.988;29.172;2023-09-12T12:56:43;97561.25;;;15.44;100.00